Thomson Dream — 9HA2381 — position and weather

sailwx.info

Track history (hours):
 
Tides and Currents Weather Stations Pressure Air Temp Water Temp Dewpoint Dewpoint Depression Visibility Wind Speed Wind Dir Waves Ship Positions

Thomson Dream

Last reported at 2014-Sep-14 13:21 UTC. Time now 2014-Sep-15 09:27 UTC.
Position N 40°15' E 005°51'.

Length 243 m; draft 7.6 m.

Type: Ship. MMSI: 248480975.

Date/timePositionNaut miles runAvg speedWind from/ knotsBaromVisibWave heightAir tempDewpointWater temp
2014-Sep-14 13:21N 40°15' E 005°51'13111.1
2014-Sep-14 01:30N 39°13' E 003°20'31 7.8
2014-Sep-13 21:33N 39°22' E 002°42'1010.1
2014-Sep-13 20:33N 39°32' E 002°39'2 0.5
2014-Sep-13 17:31N 39°33' E 002°38'0 0.0
2014-Sep-13 15:31N 39°33' E 002°38'0 0.0
2014-Sep-13 14:32N 39°33' E 002°38'0 0.0
2014-Sep-13 13:20N 39°33' E 002°38'0 0.0
2014-Sep-13 12:26N 39°33' E 002°38'0 0.0
2014-Sep-13 11:31N 39°33' E 002°38'0 0.0
2014-Sep-13 10:31N 39°33' E 002°38'0 0.0
2014-Sep-13 09:31N 39°33' E 002°38'0 0.0
2014-Sep-13 08:31N 39°33' E 002°38'0 0.0
2014-Sep-13 07:31N 39°33' E 002°38'0 0.0
2014-Sep-13 06:31N 39°33' E 002°38'0 0.0
2014-Sep-13 05:31N 39°33' E 002°38'0 0.0
2014-Sep-13 04:31N 39°33' E 002°38'0 0.1
2014-Sep-13 03:33N 39°33' E 002°38'9 8.9
2014-Sep-13 02:33N 39°25' E 002°33'1515.2
2014-Sep-13 01:33N 39°33' E 002°16'1010.1
2014-Sep-13 00:33N 39°43' E 002°14'1111.3
2014-Sep-12 23:33N 39°55' E 002°13'1212.3
2014-Sep-12 22:33N 40°07' E 002°13'1110.8
2014-Sep-12 21:33N 40°18' E 002°13'1212.3
2014-Sep-12 20:33N 40°30' E 002°12'1212.4
2014-Sep-12 19:33N 40°42' E 002°12'1212.3
2014-Sep-12 18:33N 40°55' E 002°11'1412.4
2014-Sep-12 17:27N 41°08' E 002°10'13 6.0
2014-Sep-12 15:12N 41°22' E 002°11'0 0.0
2014-Sep-12 13:12N 41°22' E 002°11'0 0.0
2014-Sep-12 12:24N 41°22' E 002°11'0 0.0
2014-Sep-12 11:30N 41°22' E 002°11'0 0.0
2014-Sep-12 10:30N 41°22' E 002°11'0 0.0
2014-Sep-12 09:33N 41°22' E 002°11'0 0.0
2014-Sep-12 08:30N 41°22' E 002°11'0 0.0
2014-Sep-12 07:18N 41°22' E 002°11'7 3.8
2014-Sep-12 05:33N 41°16' E 002°15'1413.8
2014-Sep-12 04:32N 41°23' E 002°32'1412.0
2014-Sep-12 03:21N 41°30' E 002°48'1411.9
2014-Sep-12 02:12N 41°37' E 003°04'812.2
2014-Sep-12 01:33N 41°41' E 003°13'1615.9
2014-Sep-12 00:33N 41°50' E 003°31'3616.3
2014-Sep-11 22:20N 42°09' E 004°13'1215.6
2014-Sep-11 21:33N 42°15' E 004°27'1515.0
2014-Sep-11 20:33N 42°23' E 004°44'1716.6
2014-Sep-11 19:30N 42°32' E 005°04'1414.6
2014-Sep-11 18:33N 42°39' E 005°20'1615.9
2014-Sep-11 17:32N 42°48' E 005°39'1615.9
2014-Sep-11 16:33N 42°57' E 005°56'10 9.7
2014-Sep-11 15:30N 43°07' E 005°56'0 0.0
2014-Sep-11 11:29N 43°07' E 005°56'0 0.0
2014-Sep-11 10:29N 43°07' E 005°56'0 0.0
2014-Sep-11 08:29N 43°07' E 005°56'0 0.0
2014-Sep-11 07:32N 43°07' E 005°56'0 0.0
2014-Sep-11 06:33N 43°07' E 005°56'4 4.3
2014-Sep-11 05:33N 43°04' E 005°60'10 9.6
2014-Sep-11 04:33N 42°57' E 006°09'1212.0
2014-Sep-11 03:33N 42°58' E 006°25'1111.1
2014-Sep-11 02:32N 43°04' E 006°39'1212.2
2014-Sep-11 01:33N 43°09' E 006°53'1212.1
2014-Sep-11 00:33N 43°16' E 007°07'1212.3
2014-Sep-10 23:33N 43°23' E 007°21'1312.2
2014-Sep-10 22:31N 43°30' E 007°36'3612.0
2014-Sep-10 19:33N 43°49' E 008°17'1211.8
2014-Sep-10 18:33N 43°55' E 008°31'1616.0
2014-Sep-10 17:33N 44°03' E 008°50'1616.0
2014-Sep-10 16:33N 44°10' E 009°10'7 0.6
2014-Sep-10 04:07N 44°16' E 009°17'712.6
2014-Sep-10 03:33N 44°09' E 009°13'7 6.7
2014-Sep-10 02:29N 44°02' E 009°11'0 0.5
2014-Sep-10 01:32N 44°02' E 009°11'1 0.6
2014-Sep-10 00:32N 44°01' E 009°11'1 0.7
2014-Sep-09 23:32N 44°01' E 009°12'3 3.3
2014-Sep-09 22:33N 43°58' E 009°13'9 9.3
2014-Sep-09 21:33N 43°50' E 009°21'1918.6
2014-Sep-09 20:33N 43°38' E 009°40'1716.8
2014-Sep-09 19:33N 43°30' E 010°00'1212.3
2014-Sep-09 18:33N 43°32' E 010°17'1 1.0
2014-Sep-09 17:33N 43°33' E 010°18'0 0.0
2014-Sep-09 16:33N 43°33' E 010°18'0 0.0
2014-Sep-09 15:33N 43°33' E 010°18'0 0.0
2014-Sep-09 14:33N 43°33' E 010°18'0 0.0
2014-Sep-09 13:33N 43°33' E 010°18'0 0.0
2014-Sep-09 12:33N 43°33' E 010°18'0 0.0
2014-Sep-09 11:33N 43°33' E 010°18'0 0.0
2014-Sep-09 10:30N 43°33' E 010°18'0 0.0
2014-Sep-09 09:33N 43°33' E 010°18'0 0.0
2014-Sep-09 08:33N 43°33' E 010°18'0 0.0
2014-Sep-09 07:33N 43°33' E 010°18'0 0.0
2014-Sep-09 06:33N 43°33' E 010°18'0 0.0
2014-Sep-09 05:33N 43°33' E 010°18'2 2.0
2014-Sep-09 04:33N 43°32' E 010°16'1010.1
2014-Sep-09 03:33N 43°25' E 010°06'1110.7
2014-Sep-09 02:33N 43°20' E 009°53'1111.0
2014-Sep-09 01:33N 43°21' E 009°38'4 4.0
2014-Sep-09 00:33N 43°22' E 009°32'1111.4
2014-Sep-08 23:33N 43°24' E 009°17'1111.3
2014-Sep-08 22:33N 43°26' E 009°02'1110.9
2014-Sep-08 21:33N 43°28' E 008°47'1110.6
2014-Sep-08 20:33N 43°30' E 008°33'1110.4
2014-Sep-08 19:33N 43°32' E 008°18'3610.5
2014-Sep-08 16:10N 43°38' E 007°30'710.8
2014-Sep-08 15:33N 43°39' E 007°21'3 2.7
2014-Sep-08 14:23N 43°42' E 007°19'0 0.0
2014-Sep-08 13:29N 43°42' E 007°19'0 0.0
2014-Sep-08 12:23N 43°42' E 007°19'0 0.0
2014-Sep-08 11:29N 43°42' E 007°19'0 0.0
2014-Sep-08 10:29N 43°42' E 007°19'0 0.0
2014-Sep-08 09:17N 43°42' E 007°19'0 0.0
2014-Sep-08 08:23N 43°42' E 007°19'0 0.0
2014-Sep-08 07:29N 43°42' E 007°19'0 0.0
2014-Sep-08 05:29N 43°42' E 007°19'0 0.0
2014-Sep-08 04:33N 43°42' E 007°19'6 5.6
2014-Sep-08 03:33N 43°36' E 007°16'1514.9
2014-Sep-08 02:33N 43°25' E 007°04'1413.9
2014-Sep-08 01:34N 43°13' E 006°53'1111.3
2014-Sep-08 00:33N 43°04' E 006°44'1111.0
2014-Sep-07 23:34N 42°56' E 006°33'1110.7
2014-Sep-07 22:34N 42°49' E 006°23'1110.6
2014-Sep-07 21:33N 42°41' E 006°13'1111.1
2014-Sep-07 20:33N 42°32' E 006°03'1111.4
2014-Sep-07 19:33N 42°24' E 005°53'1411.4
2014-Sep-07 18:21N 42°14' E 005°39'910.2
2014-Sep-07 17:31N 42°08' E 005°31'1111.4
2014-Sep-07 16:32N 42°00' E 005°21'1111.1
2014-Sep-07 15:33N 41°52' E 005°11'1211.3
2014-Sep-07 14:31N 41°44' E 004°60'1211.4
2014-Sep-07 13:29N 41°36' E 004°49'1211.6
2014-Sep-07 12:27N 41°27' E 004°37'1011.1
2014-Sep-07 11:32N 41°20' E 004°28'1111.1
2014-Sep-07 10:31N 41°11' E 004°18'1211.2
2014-Sep-07 09:27N 41°03' E 004°06'1211.3
2014-Sep-07 08:25N 40°55' E 003°56'1516.7
2014-Sep-07 07:33N 40°44' E 003°42'3627.5
2014-Sep-07 06:14N 40°18' E 003°09'0 0.2
2014-Sep-07 04:25N 40°18' E 003°09'1011.8
2014-Sep-07 03:33N 40°10' E 002°60'1211.8
2014-Sep-07 02:34N 40°02' E 002°49'1211.5
2014-Sep-07 01:33N 39°54' E 002°39'1111.5
2014-Sep-07 00:33N 39°46' E 002°28'1211.7
2014-Sep-06 23:33N 39°37' E 002°18'1010.1
2014-Sep-06 22:33N 39°27' E 002°21'1110.6
2014-Sep-06 21:33N 39°26' E 002°35'7 7.2
2014-Sep-06 20:32N 39°33' E 002°38'0 0.0
2014-Sep-06 19:32N 39°33' E 002°38'0 0.0
2014-Sep-06 18:33N 39°33' E 002°38'0 0.0
2014-Sep-06 17:33N 39°33' E 002°38'0 0.0
2014-Sep-06 16:30N 39°33' E 002°38'0 0.0
2014-Sep-06 15:32N 39°33' E 002°38'0 0.0
2014-Sep-06 14:32N 39°33' E 002°38'0 0.0
2014-Sep-06 13:32N 39°33' E 002°38'0 0.0
2014-Sep-06 12:32N 39°33' E 002°38'0 0.0
2014-Sep-06 11:32N 39°33' E 002°38'0 0.0
2014-Sep-06 10:32N 39°33' E 002°38'0 0.0
2014-Sep-06 09:32N 39°33' E 002°38'0 0.0
2014-Sep-06 06:11N 39°33' E 002°38'25 3.8
2014-Sep-05 23:28N 39°55' E 002°21'2512.4
2014-Sep-05 21:29N 40°19' E 002°31'1312.7
2014-Sep-05 20:26N 40°32' E 002°35'1516.7
2014-Sep-05 19:33N 40°45' E 002°41'1716.6
2014-Sep-05 18:33N 41°01' E 002°48'1716.8
2014-Sep-05 17:32N 41°18' E 002°54'2116.2
2014-Sep-05 16:16N 41°38' E 003°01'1315.9
2014-Sep-05 15:28N 41°50' E 003°07'1 0.1
2014-Sep-05 06:27N 41°51' E 003°07'4 4.7
2014-Sep-05 05:33N 41°50' E 003°13'1414.0
2014-Sep-05 04:33N 41°49' E 003°32'1412.5
2014-Sep-05 03:24N 41°49' E 003°51'1011.4
2014-Sep-05 02:33N 41°49' E 004°04'1616.2
2014-Sep-05 01:33N 41°49' E 004°26'1615.7
2014-Sep-05 00:33N 41°49' E 004°47'1515.2
2014-Sep-04 23:33N 41°49' E 005°07'1616.3
2014-Sep-04 22:33N 41°49' E 005°29'1616.1
2014-Sep-04 21:33N 41°49' E 005°51'1616.0
2014-Sep-04 20:33N 41°51' E 006°12'1615.3
2014-Sep-04 19:32N 41°49' E 006°33'1515.8
2014-Sep-04 18:33N 41°49' E 006°54'1616.1
2014-Sep-04 17:33N 41°49' E 007°15'1515.4
2014-Sep-04 16:33N 41°49' E 007°36'1616.0
2014-Sep-04 15:33N 41°49' E 007°57'  
Track history (hours):
 
Tides and Currents Weather Stations Pressure Air Temp Water Temp Dewpoint Dewpoint Depression Visibility Wind Speed Wind Dir Waves Ship Positions

Thomson Dream

Last reported at 2014-Sep-14 13:21 UTC. Time now 2014-Sep-15 09:27 UTC.
Position N 40°15' E 005°51'.

Length 243 m; draft 7.6 m.

Type: Ship. MMSI: 248480975.

Date/timePositionNaut miles runAvg speedWind from/ knotsBaromVisibWave heightAir tempDewpointWater temp
2014-Sep-14 13:21N 40°15' E 005°51'13111.1
2014-Sep-14 01:30N 39°13' E 003°20'31 7.8
2014-Sep-13 21:33N 39°22' E 002°42'1010.1
2014-Sep-13 20:33N 39°32' E 002°39'2 0.5
2014-Sep-13 17:31N 39°33' E 002°38'0 0.0
2014-Sep-13 15:31N 39°33' E 002°38'0 0.0
2014-Sep-13 14:32N 39°33' E 002°38'0 0.0
2014-Sep-13 13:20N 39°33' E 002°38'0 0.0
2014-Sep-13 12:26N 39°33' E 002°38'0 0.0
2014-Sep-13 11:31N 39°33' E 002°38'0 0.0
2014-Sep-13 10:31N 39°33' E 002°38'0 0.0
2014-Sep-13 09:31N 39°33' E 002°38'0 0.0
2014-Sep-13 08:31N 39°33' E 002°38'0 0.0
2014-Sep-13 07:31N 39°33' E 002°38'0 0.0
2014-Sep-13 06:31N 39°33' E 002°38'0 0.0
2014-Sep-13 05:31N 39°33' E 002°38'0 0.0
2014-Sep-13 04:31N 39°33' E 002°38'0 0.1
2014-Sep-13 03:33N 39°33' E 002°38'9 8.9
2014-Sep-13 02:33N 39°25' E 002°33'1515.2
2014-Sep-13 01:33N 39°33' E 002°16'1010.1
2014-Sep-13 00:33N 39°43' E 002°14'1111.3
2014-Sep-12 23:33N 39°55' E 002°13'1212.3
2014-Sep-12 22:33N 40°07' E 002°13'1110.8
2014-Sep-12 21:33N 40°18' E 002°13'1212.3
2014-Sep-12 20:33N 40°30' E 002°12'1212.4
2014-Sep-12 19:33N 40°42' E 002°12'1212.3
2014-Sep-12 18:33N 40°55' E 002°11'1412.4
2014-Sep-12 17:27N 41°08' E 002°10'13 6.0
2014-Sep-12 15:12N 41°22' E 002°11'0 0.0
2014-Sep-12 13:12N 41°22' E 002°11'0 0.0
2014-Sep-12 12:24N 41°22' E 002°11'0 0.0
2014-Sep-12 11:30N 41°22' E 002°11'0 0.0
2014-Sep-12 10:30N 41°22' E 002°11'0 0.0
2014-Sep-12 09:33N 41°22' E 002°11'0 0.0
2014-Sep-12 08:30N 41°22' E 002°11'0 0.0
2014-Sep-12 07:18N 41°22' E 002°11'7 3.8
2014-Sep-12 05:33N 41°16' E 002°15'1413.8
2014-Sep-12 04:32N 41°23' E 002°32'1412.0
2014-Sep-12 03:21N 41°30' E 002°48'1411.9
2014-Sep-12 02:12N 41°37' E 003°04'812.2
2014-Sep-12 01:33N 41°41' E 003°13'1615.9
2014-Sep-12 00:33N 41°50' E 003°31'3616.3
2014-Sep-11 22:20N 42°09' E 004°13'1215.6
2014-Sep-11 21:33N 42°15' E 004°27'1515.0
2014-Sep-11 20:33N 42°23' E 004°44'1716.6
2014-Sep-11 19:30N 42°32' E 005°04'1414.6
2014-Sep-11 18:33N 42°39' E 005°20'1615.9
2014-Sep-11 17:32N 42°48' E 005°39'1615.9
2014-Sep-11 16:33N 42°57' E 005°56'10 9.7
2014-Sep-11 15:30N 43°07' E 005°56'0 0.0
2014-Sep-11 11:29N 43°07' E 005°56'0 0.0
2014-Sep-11 10:29N 43°07' E 005°56'0 0.0
2014-Sep-11 08:29N 43°07' E 005°56'0 0.0
2014-Sep-11 07:32N 43°07' E 005°56'0 0.0
2014-Sep-11 06:33N 43°07' E 005°56'4 4.3
2014-Sep-11 05:33N 43°04' E 005°60'10 9.6
2014-Sep-11 04:33N 42°57' E 006°09'1212.0
2014-Sep-11 03:33N 42°58' E 006°25'1111.1
2014-Sep-11 02:32N 43°04' E 006°39'1212.2
2014-Sep-11 01:33N 43°09' E 006°53'1212.1
2014-Sep-11 00:33N 43°16' E 007°07'1212.3
2014-Sep-10 23:33N 43°23' E 007°21'1312.2
2014-Sep-10 22:31N 43°30' E 007°36'3612.0
2014-Sep-10 19:33N 43°49' E 008°17'1211.8
2014-Sep-10 18:33N 43°55' E 008°31'1616.0
2014-Sep-10 17:33N 44°03' E 008°50'1616.0
2014-Sep-10 16:33N 44°10' E 009°10'7 0.6
2014-Sep-10 04:07N 44°16' E 009°17'712.6
2014-Sep-10 03:33N 44°09' E 009°13'7 6.7
2014-Sep-10 02:29N 44°02' E 009°11'0 0.5
2014-Sep-10 01:32N 44°02' E 009°11'1 0.6
2014-Sep-10 00:32N 44°01' E 009°11'1 0.7
2014-Sep-09 23:32N 44°01' E 009°12'3 3.3
2014-Sep-09 22:33N 43°58' E 009°13'9 9.3
2014-Sep-09 21:33N 43°50' E 009°21'1918.6
2014-Sep-09 20:33N 43°38' E 009°40'1716.8
2014-Sep-09 19:33N 43°30' E 010°00'1212.3
2014-Sep-09 18:33N 43°32' E 010°17'1 1.0
2014-Sep-09 17:33N 43°33' E 010°18'0 0.0
2014-Sep-09 16:33N 43°33' E 010°18'0 0.0
2014-Sep-09 15:33N 43°33' E 010°18'0 0.0
2014-Sep-09 14:33N 43°33' E 010°18'0 0.0
2014-Sep-09 13:33N 43°33' E 010°18'0 0.0
2014-Sep-09 12:33N 43°33' E 010°18'0 0.0
2014-Sep-09 11:33N 43°33' E 010°18'0 0.0
2014-Sep-09 10:30N 43°33' E 010°18'0 0.0
2014-Sep-09 09:33N 43°33' E 010°18'0 0.0
2014-Sep-09 08:33N 43°33' E 010°18'0 0.0
2014-Sep-09 07:33N 43°33' E 010°18'0 0.0
2014-Sep-09 06:33N 43°33' E 010°18'0 0.0
2014-Sep-09 05:33N 43°33' E 010°18'2 2.0
2014-Sep-09 04:33N 43°32' E 010°16'1010.1
2014-Sep-09 03:33N 43°25' E 010°06'1110.7
2014-Sep-09 02:33N 43°20' E 009°53'1111.0
2014-Sep-09 01:33N 43°21' E 009°38'4 4.0
2014-Sep-09 00:33N 43°22' E 009°32'1111.4
2014-Sep-08 23:33N 43°24' E 009°17'1111.3
2014-Sep-08 22:33N 43°26' E 009°02'1110.9
2014-Sep-08 21:33N 43°28' E 008°47'1110.6
2014-Sep-08 20:33N 43°30' E 008°33'1110.4
2014-Sep-08 19:33N 43°32' E 008°18'3610.5
2014-Sep-08 16:10N 43°38' E 007°30'710.8
2014-Sep-08 15:33N 43°39' E 007°21'3 2.7
2014-Sep-08 14:23N 43°42' E 007°19'0 0.0
2014-Sep-08 13:29N 43°42' E 007°19'0 0.0
2014-Sep-08 12:23N 43°42' E 007°19'0 0.0
2014-Sep-08 11:29N 43°42' E 007°19'0 0.0
2014-Sep-08 10:29N 43°42' E 007°19'0 0.0
2014-Sep-08 09:17N 43°42' E 007°19'0 0.0
2014-Sep-08 08:23N 43°42' E 007°19'0 0.0
2014-Sep-08 07:29N 43°42' E 007°19'0 0.0
2014-Sep-08 05:29N 43°42' E 007°19'0 0.0
2014-Sep-08 04:33N 43°42' E 007°19'6 5.6
2014-Sep-08 03:33N 43°36' E 007°16'1514.9
2014-Sep-08 02:33N 43°25' E 007°04'1413.9
2014-Sep-08 01:34N 43°13' E 006°53'1111.3
2014-Sep-08 00:33N 43°04' E 006°44'1111.0
2014-Sep-07 23:34N 42°56' E 006°33'1110.7
2014-Sep-07 22:34N 42°49' E 006°23'1110.6
2014-Sep-07 21:33N 42°41' E 006°13'1111.1
2014-Sep-07 20:33N 42°32' E 006°03'1111.4
2014-Sep-07 19:33N 42°24' E 005°53'1411.4
2014-Sep-07 18:21N 42°14' E 005°39'910.2
2014-Sep-07 17:31N 42°08' E 005°31'1111.4
2014-Sep-07 16:32N 42°00' E 005°21'1111.1
2014-Sep-07 15:33N 41°52' E 005°11'1211.3
2014-Sep-07 14:31N 41°44' E 004°60'1211.4
2014-Sep-07 13:29N 41°36' E 004°49'1211.6
2014-Sep-07 12:27N 41°27' E 004°37'1011.1
2014-Sep-07 11:32N 41°20' E 004°28'1111.1
2014-Sep-07 10:31N 41°11' E 004°18'1211.2
2014-Sep-07 09:27N 41°03' E 004°06'1211.3
2014-Sep-07 08:25N 40°55' E 003°56'1516.7
2014-Sep-07 07:33N 40°44' E 003°42'3627.5
2014-Sep-07 06:14N 40°18' E 003°09'0 0.2
2014-Sep-07 04:25N 40°18' E 003°09'1011.8
2014-Sep-07 03:33N 40°10' E 002°60'1211.8
2014-Sep-07 02:34N 40°02' E 002°49'1211.5
2014-Sep-07 01:33N 39°54' E 002°39'1111.5
2014-Sep-07 00:33N 39°46' E 002°28'1211.7
2014-Sep-06 23:33N 39°37' E 002°18'1010.1
2014-Sep-06 22:33N 39°27' E 002°21'1110.6
2014-Sep-06 21:33N 39°26' E 002°35'7 7.2
2014-Sep-06 20:32N 39°33' E 002°38'0 0.0
2014-Sep-06 19:32N 39°33' E 002°38'0 0.0
2014-Sep-06 18:33N 39°33' E 002°38'0 0.0
2014-Sep-06 17:33N 39°33' E 002°38'0 0.0
2014-Sep-06 16:30N 39°33' E 002°38'0 0.0
2014-Sep-06 15:32N 39°33' E 002°38'0 0.0
2014-Sep-06 14:32N 39°33' E 002°38'0 0.0
2014-Sep-06 13:32N 39°33' E 002°38'0 0.0
2014-Sep-06 12:32N 39°33' E 002°38'0 0.0
2014-Sep-06 11:32N 39°33' E 002°38'0 0.0
2014-Sep-06 10:32N 39°33' E 002°38'0 0.0
2014-Sep-06 09:32N 39°33' E 002°38'0 0.0
2014-Sep-06 06:11N 39°33' E 002°38'25 3.8
2014-Sep-05 23:28N 39°55' E 002°21'2512.4
2014-Sep-05 21:29N 40°19' E 002°31'1312.7
2014-Sep-05 20:26N 40°32' E 002°35'1516.7
2014-Sep-05 19:33N 40°45' E 002°41'1716.6
2014-Sep-05 18:33N 41°01' E 002°48'1716.8
2014-Sep-05 17:32N 41°18' E 002°54'2116.2
2014-Sep-05 16:16N 41°38' E 003°01'1315.9
2014-Sep-05 15:28N 41°50' E 003°07'1 0.1
2014-Sep-05 06:27N 41°51' E 003°07'4 4.7
2014-Sep-05 05:33N 41°50' E 003°13'1414.0
2014-Sep-05 04:33N 41°49' E 003°32'1412.5
2014-Sep-05 03:24N 41°49' E 003°51'1011.4
2014-Sep-05 02:33N 41°49' E 004°04'1616.2
2014-Sep-05 01:33N 41°49' E 004°26'1615.7
2014-Sep-05 00:33N 41°49' E 004°47'1515.2
2014-Sep-04 23:33N 41°49' E 005°07'1616.3
2014-Sep-04 22:33N 41°49' E 005°29'1616.1
2014-Sep-04 21:33N 41°49' E 005°51'1616.0
2014-Sep-04 20:33N 41°51' E 006°12'1615.3
2014-Sep-04 19:32N 41°49' E 006°33'1515.8
2014-Sep-04 18:33N 41°49' E 006°54'1616.1
2014-Sep-04 17:33N 41°49' E 007°15'1515.4
2014-Sep-04 16:33N 41°49' E 007°36'1616.0
2014-Sep-04 15:33N 41°49' E 007°57'  

Dump ship's entire track history